Orange, New Jersey
Current Conditions -  °F | °C
As of 3:51 PM on Saturday 25 Oct 2014 (Local Time) from KEWR Reporting Station
Scattered Clouds Scattered Clouds  
Wind Chill: 21°   Ceiling: Unl
Heat Index: 21°   Visibility: 10mi
Dew Point:   Wind: 14mph
Humidity: 39%   Direction: 250°WSW
Pressure: 29.68"   Gusts: 23mph
Location:  40.77°N, 74.23°W
Report Text: KEWR 251951Z 25012G20KT 10SM FEW050 SCT250 21/06 A2968 RMK AO2 SLP049 T02060061
Loading
Personal Weather Stations






























Interactive Weather Map
Tropical Storm Tracking
New forecast layout! Learn more

10-Day Weather Forecast

Advertisements
Track Severe Weather on mobile